sensor_id;sensor_type;location;lat;lon;timestamp;P1;durP1;ratioP1;P2;durP2;ratioP2
68247;SDS011;55064;49.636;12.164;2022-12-07T00:01:21;8.47;;;3.10;;
68247;SDS011;55064;49.636;12.164;2022-12-07T00:03:49;9.23;;;3.38;;
68247;SDS011;55064;49.636;12.164;2022-12-07T00:06:17;8.82;;;3.33;;
68247;SDS011;55064;49.636;12.164;2022-12-07T00:08:44;8.53;;;3.13;;
68247;SDS011;55064;49.636;12.164;2022-12-07T00:11:16;9.90;;;3.28;;
68247;SDS011;55064;49.636;12.164;2022-12-07T00:13:45;9.45;;;3.55;;
68247;SDS011;55064;49.636;12.164;2022-12-07T00:16:16;8.65;;;3.25;;
68247;SDS011;55064;49.636;12.164;2022-12-07T00:18:46;9.13;;;3.42;;
68247;SDS011;55064;49.636;12.164;2022-12-07T00:21:15;10.50;;;4.03;;
68247;SDS011;55064;49.636;12.164;2022-12-07T00:23:45;10.25;;;4.72;;
68247;SDS011;55064;49.636;12.164;2022-12-07T00:26:17;12.43;;;5.40;;
68247;SDS011;55064;49.636;12.164;2022-12-07T00:28:46;9.18;;;3.58;;
68247;SDS011;55064;49.636;12.164;2022-12-07T00:31:13;9.20;;;3.65;;
68247;SDS011;55064;49.636;12.164;2022-12-07T00:33:42;11.40;;;4.97;;
68247;SDS011;55064;49.636;12.164;2022-12-07T00:36:08;12.73;;;5.10;;
68247;SDS011;55064;49.636;12.164;2022-12-07T00:38:36;11.70;;;4.43;;
68247;SDS011;55064;49.636;12.164;2022-12-07T00:41:08;9.73;;;3.70;;
68247;SDS011;55064;49.636;12.164;2022-12-07T00:43:37;9.30;;;3.50;;
68247;SDS011;55064;49.636;12.164;2022-12-07T00:46:02;9.63;;;3.75;;
68247;SDS011;55064;49.636;12.164;2022-12-07T00:48:32;10.02;;;4.10;;
68247;SDS011;55064;49.636;12.164;2022-12-07T00:50:58;10.60;;;4.20;;
68247;SDS011;55064;49.636;12.164;2022-12-07T00:53:27;9.20;;;3.75;;
68247;SDS011;55064;49.636;12.164;2022-12-07T00:55:52;9.70;;;4.20;;
68247;SDS011;55064;49.636;12.164;2022-12-07T00:58:18;8.93;;;3.55;;
68247;SDS011;55064;49.636;12.164;2022-12-07T01:00:47;8.73;;;3.17;;
68247;SDS011;55064;49.636;12.164;2022-12-07T01:03:16;8.73;;;3.28;;
68247;SDS011;55064;49.636;12.164;2022-12-07T01:05:49;8.40;;;3.42;;
68247;SDS011;55064;49.636;12.164;2022-12-07T01:08:16;8.70;;;3.10;;
68247;SDS011;55064;49.636;12.164;2022-12-07T01:10:42;9.13;;;3.30;;
68247;SDS011;55064;49.636;12.164;2022-12-07T01:13:07;9.10;;;3.63;;
68247;SDS011;55064;49.636;12.164;2022-12-07T01:15:32;10.13;;;3.80;;
68247;SDS011;55064;49.636;12.164;2022-12-07T01:17:58;9.47;;;3.50;;
68247;SDS011;55064;49.636;12.164;2022-12-07T01:20:27;11.77;;;4.37;;
68247;SDS011;55064;49.636;12.164;2022-12-07T01:22:53;13.13;;;4.68;;
68247;SDS011;55064;49.636;12.164;2022-12-07T01:25:21;16.02;;;5.82;;
68247;SDS011;55064;49.636;12.164;2022-12-07T01:27:51;22.38;;;6.72;;
68247;SDS011;55064;49.636;12.164;2022-12-07T01:30:19;18.73;;;6.30;;
68247;SDS011;55064;49.636;12.164;2022-12-07T01:32:45;13.00;;;5.43;;
68247;SDS011;55064;49.636;12.164;2022-12-07T01:35:10;11.73;;;5.13;;
68247;SDS011;55064;49.636;12.164;2022-12-07T01:37:36;12.67;;;5.13;;
68247;SDS011;55064;49.636;12.164;2022-12-07T01:40:03;12.40;;;4.60;;
68247;SDS011;55064;49.636;12.164;2022-12-07T01:42:34;13.07;;;4.93;;
68247;SDS011;55064;49.636;12.164;2022-12-07T01:47:46;10.63;;;4.47;;
68247;SDS011;55064;49.636;12.164;2022-12-07T01:50:17;10.17;;;3.93;;
68247;SDS011;55064;49.636;12.164;2022-12-07T01:52:48;10.98;;;4.47;;
68247;SDS011;55064;49.636;12.164;2022-12-07T01:55:20;10.95;;;4.65;;
68247;SDS011;55064;49.636;12.164;2022-12-07T01:57:49;10.82;;;4.70;;
68247;SDS011;55064;49.636;12.164;2022-12-07T02:00:20;11.15;;;4.38;;
68247;SDS011;55064;49.636;12.164;2022-12-07T02:02:47;11.03;;;4.27;;
68247;SDS011;55064;49.636;12.164;2022-12-07T02:05:21;12.45;;;4.55;;
68247;SDS011;55064;49.636;12.164;2022-12-07T02:07:50;12.35;;;5.03;;
68247;SDS011;55064;49.636;12.164;2022-12-07T02:10:20;11.93;;;4.65;;
68247;SDS011;55064;49.636;12.164;2022-12-07T02:13:10;11.98;;;5.20;;
68247;SDS011;55064;49.636;12.164;2022-12-07T02:18:58;9.13;;;3.53;;
68247;SDS011;55064;49.636;12.164;2022-12-07T02:24:14;7.65;;;2.40;;
68247;SDS011;55064;49.636;12.164;2022-12-07T02:29:46;7.73;;;2.27;;
68247;SDS011;55064;49.636;12.164;2022-12-07T02:32:13;6.47;;;2.20;;
68247;SDS011;55064;49.636;12.164;2022-12-07T02:34:53;8.30;;;2.47;;
68247;SDS011;55064;49.636;12.164;2022-12-07T02:42:57;8.77;;;2.10;;
68247;SDS011;55064;49.636;12.164;2022-12-07T02:45:28;8.40;;;2.63;;
68247;SDS011;55064;49.636;12.164;2022-12-07T02:47:56;9.00;;;2.85;;
68247;SDS011;55064;49.636;12.164;2022-12-07T02:50:27;8.55;;;2.90;;
68247;SDS011;55064;49.636;12.164;2022-12-07T02:52:53;10.10;;;3.08;;
68247;SDS011;55064;49.636;12.164;2022-12-07T02:55:19;6.90;;;2.57;;
68247;SDS011;55064;49.636;12.164;2022-12-07T03:00:22;6.80;;;2.25;;
68247;SDS011;55064;49.636;12.164;2022-12-07T03:02:58;8.50;;;2.40;;
68247;SDS011;55064;49.636;12.164;2022-12-07T03:11:23;6.18;;;2.25;;
68247;SDS011;55064;49.636;12.164;2022-12-07T03:13:55;7.15;;;2.40;;
68247;SDS011;55064;49.636;12.164;2022-12-07T03:16:32;7.63;;;2.20;;
68247;SDS011;55064;49.636;12.164;2022-12-07T03:21:42;7.10;;;2.50;;
68247;SDS011;55064;49.636;12.164;2022-12-07T03:24:13;8.63;;;2.80;;
68247;SDS011;55064;49.636;12.164;2022-12-07T03:26:48;9.65;;;3.22;;
68247;SDS011;55064;49.636;12.164;2022-12-07T03:29:37;8.82;;;3.10;;
68247;SDS011;55064;49.636;12.164;2022-12-07T03:32:14;8.13;;;2.60;;
68247;SDS011;55064;49.636;12.164;2022-12-07T03:40:06;8.95;;;3.15;;
68247;SDS011;55064;49.636;12.164;2022-12-07T03:42:37;10.70;;;3.42;;
68247;SDS011;55064;49.636;12.164;2022-12-07T03:45:03;11.07;;;3.50;;
68247;SDS011;55064;49.636;12.164;2022-12-07T03:50:10;10.98;;;4.28;;
68247;SDS011;55064;49.636;12.164;2022-12-07T03:53:28;11.33;;;4.43;;
68247;SDS011;55064;49.636;12.164;2022-12-07T03:55:39;11.75;;;4.65;;
68247;SDS011;55064;49.636;12.164;2022-12-07T03:58:12;12.27;;;4.68;;
68247;SDS011;55064;49.636;12.164;2022-12-07T04:00:41;13.65;;;4.75;;
68247;SDS011;55064;49.636;12.164;2022-12-07T04:03:07;13.43;;;5.05;;
68247;SDS011;55064;49.636;12.164;2022-12-07T04:05:36;13.13;;;4.80;;
68247;SDS011;55064;49.636;12.164;2022-12-07T04:08:05;12.52;;;4.82;;
68247;SDS011;55064;49.636;12.164;2022-12-07T04:10:34;13.10;;;5.30;;
68247;SDS011;55064;49.636;12.164;2022-12-07T04:12:59;15.17;;;5.17;;
68247;SDS011;55064;49.636;12.164;2022-12-07T04:15:26;12.17;;;5.40;;
68247;SDS011;55064;49.636;12.164;2022-12-07T04:17:51;12.73;;;5.35;;
68247;SDS011;55064;49.636;12.164;2022-12-07T04:20:18;11.73;;;4.97;;
68247;SDS011;55064;49.636;12.164;2022-12-07T04:22:43;13.70;;;5.10;;
68247;SDS011;55064;49.636;12.164;2022-12-07T04:25:11;10.90;;;4.23;;
68247;SDS011;55064;49.636;12.164;2022-12-07T04:27:36;10.25;;;4.28;;
68247;SDS011;55064;49.636;12.164;2022-12-07T04:30:02;11.53;;;4.50;;
68247;SDS011;55064;49.636;12.164;2022-12-07T04:32:29;11.10;;;4.32;;
68247;SDS011;55064;49.636;12.164;2022-12-07T04:34:54;10.33;;;3.97;;
68247;SDS011;55064;49.636;12.164;2022-12-07T04:37:20;10.52;;;3.90;;
68247;SDS011;55064;49.636;12.164;2022-12-07T04:39:47;11.70;;;4.47;;
68247;SDS011;55064;49.636;12.164;2022-12-07T04:42:16;11.88;;;4.05;;
68247;SDS011;55064;49.636;12.164;2022-12-07T04:44:44;12.80;;;4.32;;
68247;SDS011;55064;49.636;12.164;2022-12-07T04:47:12;12.95;;;4.72;;
68247;SDS011;55064;49.636;12.164;2022-12-07T04:49:44;12.23;;;4.95;;
68247;SDS011;55064;49.636;12.164;2022-12-07T04:54:52;13.52;;;5.57;;
68247;SDS011;55064;49.636;12.164;2022-12-07T04:57:20;15.10;;;6.22;;
68247;SDS011;55064;49.636;12.164;2022-12-07T04:59:45;15.07;;;6.40;;
68247;SDS011;55064;49.636;12.164;2022-12-07T05:02:13;15.10;;;6.53;;
68247;SDS011;55064;49.636;12.164;2022-12-07T05:04:41;15.13;;;6.28;;
68247;SDS011;55064;49.636;12.164;2022-12-07T05:07:06;14.63;;;6.22;;
68247;SDS011;55064;49.636;12.164;2022-12-07T05:09:32;17.80;;;6.33;;
68247;SDS011;55064;49.636;12.164;2022-12-07T05:11:57;15.13;;;6.10;;
68247;SDS011;55064;49.636;12.164;2022-12-07T05:14:23;14.70;;;6.27;;
68247;SDS011;55064;49.636;12.164;2022-12-07T05:16:51;14.77;;;6.10;;
68247;SDS011;55064;49.636;12.164;2022-12-07T05:19:19;16.25;;;6.05;;
68247;SDS011;55064;49.636;12.164;2022-12-07T05:21:45;17.13;;;6.25;;
68247;SDS011;55064;49.636;12.164;2022-12-07T05:24:13;15.50;;;6.63;;
68247;SDS011;55064;49.636;12.164;2022-12-07T05:26:43;17.90;;;6.67;;
68247;SDS011;55064;49.636;12.164;2022-12-07T05:29:21;19.40;;;7.35;;
68247;SDS011;55064;49.636;12.164;2022-12-07T05:31:51;18.30;;;7.30;;
68247;SDS011;55064;49.636;12.164;2022-12-07T05:34:20;16.88;;;7.35;;
68247;SDS011;55064;49.636;12.164;2022-12-07T05:36:45;19.80;;;7.45;;
68247;SDS011;55064;49.636;12.164;2022-12-07T05:39:11;17.47;;;6.63;;
68247;SDS011;55064;49.636;12.164;2022-12-07T05:41:37;18.93;;;7.47;;
68247;SDS011;55064;49.636;12.164;2022-12-07T05:44:24;21.38;;;8.90;;
68247;SDS011;55064;49.636;12.164;2022-12-07T05:46:49;19.02;;;8.77;;
68247;SDS011;55064;49.636;12.164;2022-12-07T05:49:14;17.97;;;7.43;;
68247;SDS011;55064;49.636;12.164;2022-12-07T05:51:42;21.30;;;8.20;;
68247;SDS011;55064;49.636;12.164;2022-12-07T05:54:10;18.50;;;7.87;;
68247;SDS011;55064;49.636;12.164;2022-12-07T05:56:40;19.13;;;7.90;;
68247;SDS011;55064;49.636;12.164;2022-12-07T05:59:10;21.47;;;8.53;;
68247;SDS011;55064;49.636;12.164;2022-12-07T06:01:48;16.65;;;7.22;;
68247;SDS011;55064;49.636;12.164;2022-12-07T06:04:17;17.55;;;7.32;;
68247;SDS011;55064;49.636;12.164;2022-12-07T06:06:47;17.73;;;7.70;;
68247;SDS011;55064;49.636;12.164;2022-12-07T06:09:16;18.95;;;7.65;;
68247;SDS011;55064;49.636;12.164;2022-12-07T06:11:43;18.33;;;7.43;;
68247;SDS011;55064;49.636;12.164;2022-12-07T06:14:30;17.00;;;6.63;;
68247;SDS011;55064;49.636;12.164;2022-12-07T06:16:58;20.08;;;7.40;;
68247;SDS011;55064;49.636;12.164;2022-12-07T06:19:24;20.02;;;8.23;;
68247;SDS011;55064;49.636;12.164;2022-12-07T06:21:49;19.00;;;6.93;;
68247;SDS011;55064;49.636;12.164;2022-12-07T06:24:17;19.07;;;8.50;;
68247;SDS011;55064;49.636;12.164;2022-12-07T06:26:46;21.85;;;9.85;;
68247;SDS011;55064;49.636;12.164;2022-12-07T06:29:13;19.10;;;8.43;;
68247;SDS011;55064;49.636;12.164;2022-12-07T06:31:42;18.98;;;7.70;;
68247;SDS011;55064;49.636;12.164;2022-12-07T06:34:11;19.80;;;7.13;;
68247;SDS011;55064;49.636;12.164;2022-12-07T06:36:38;19.63;;;7.53;;
68247;SDS011;55064;49.636;12.164;2022-12-07T06:39:06;20.42;;;7.75;;
68247;SDS011;55064;49.636;12.164;2022-12-07T06:41:37;18.63;;;7.43;;
68247;SDS011;55064;49.636;12.164;2022-12-07T06:44:04;19.42;;;7.47;;
68247;SDS011;55064;49.636;12.164;2022-12-07T06:46:30;17.55;;;7.38;;
68247;SDS011;55064;49.636;12.164;2022-12-07T06:49:00;22.10;;;7.57;;
68247;SDS011;55064;49.636;12.164;2022-12-07T06:51:25;20.20;;;7.68;;
68247;SDS011;55064;49.636;12.164;2022-12-07T06:53:52;19.40;;;7.63;;
68247;SDS011;55064;49.636;12.164;2022-12-07T06:56:19;18.73;;;7.43;;
68247;SDS011;55064;49.636;12.164;2022-12-07T06:58:50;18.75;;;7.97;;
68247;SDS011;55064;49.636;12.164;2022-12-07T07:01:18;20.20;;;7.97;;
68247;SDS011;55064;49.636;12.164;2022-12-07T07:04:06;22.45;;;8.30;;
68247;SDS011;55064;49.636;12.164;2022-12-07T07:06:31;20.83;;;8.25;;
68247;SDS011;55064;49.636;12.164;2022-12-07T07:08:59;20.50;;;8.55;;
68247;SDS011;55064;49.636;12.164;2022-12-07T07:11:24;20.83;;;8.27;;
68247;SDS011;55064;49.636;12.164;2022-12-07T07:13:50;21.70;;;9.07;;
68247;SDS011;55064;49.636;12.164;2022-12-07T07:16:18;20.20;;;8.68;;
68247;SDS011;55064;49.636;12.164;2022-12-07T07:18:48;20.55;;;8.55;;
68247;SDS011;55064;49.636;12.164;2022-12-07T07:21:14;21.10;;;8.60;;
68247;SDS011;55064;49.636;12.164;2022-12-07T07:23:39;21.03;;;8.17;;
68247;SDS011;55064;49.636;12.164;2022-12-07T07:26:05;19.88;;;7.70;;
68247;SDS011;55064;49.636;12.164;2022-12-07T07:28:33;23.53;;;8.63;;
68247;SDS011;55064;49.636;12.164;2022-12-07T07:31:02;26.17;;;8.35;;
68247;SDS011;55064;49.636;12.164;2022-12-07T07:33:30;21.27;;;7.95;;
68247;SDS011;55064;49.636;12.164;2022-12-07T07:35:55;19.20;;;7.50;;
68247;SDS011;55064;49.636;12.164;2022-12-07T07:38:21;17.50;;;7.27;;
68247;SDS011;55064;49.636;12.164;2022-12-07T07:40:46;21.80;;;7.83;;
68247;SDS011;55064;49.636;12.164;2022-12-07T07:43:14;23.30;;;8.60;;
68247;SDS011;55064;49.636;12.164;2022-12-07T07:45:39;20.97;;;8.33;;
68247;SDS011;55064;49.636;12.164;2022-12-07T07:48:08;26.77;;;9.40;;
68247;SDS011;55064;49.636;12.164;2022-12-07T07:50:36;28.52;;;10.35;;
68247;SDS011;55064;49.636;12.164;2022-12-07T07:53:01;27.10;;;10.07;;
68247;SDS011;55064;49.636;12.164;2022-12-07T07:55:29;23.27;;;9.13;;
68247;SDS011;55064;49.636;12.164;2022-12-07T07:57:54;25.70;;;10.13;;
68247;SDS011;55064;49.636;12.164;2022-12-07T08:00:22;32.00;;;11.50;;
68247;SDS011;55064;49.636;12.164;2022-12-07T08:02:48;35.53;;;11.70;;
68247;SDS011;55064;49.636;12.164;2022-12-07T08:05:15;34.22;;;11.98;;
68247;SDS011;55064;49.636;12.164;2022-12-07T08:07:41;33.65;;;11.45;;
68247;SDS011;55064;49.636;12.164;2022-12-07T08:10:06;28.93;;;11.30;;
68247;SDS011;55064;49.636;12.164;2022-12-07T08:12:35;34.30;;;10.98;;
68247;SDS011;55064;49.636;12.164;2022-12-07T08:15:05;29.20;;;11.20;;
68247;SDS011;55064;49.636;12.164;2022-12-07T08:17:35;27.42;;;10.70;;
68247;SDS011;55064;49.636;12.164;2022-12-07T08:20:01;29.43;;;9.50;;
68247;SDS011;55064;49.636;12.164;2022-12-07T08:22:27;31.65;;;9.68;;
68247;SDS011;55064;49.636;12.164;2022-12-07T08:24:53;20.45;;;7.63;;
68247;SDS011;55064;49.636;12.164;2022-12-07T08:27:18;25.07;;;9.03;;
68247;SDS011;55064;49.636;12.164;2022-12-07T08:29:48;32.67;;;11.50;;
68247;SDS011;55064;49.636;12.164;2022-12-07T08:32:17;22.50;;;8.57;;
68247;SDS011;55064;49.636;12.164;2022-12-07T08:34:42;24.90;;;8.80;;
68247;SDS011;55064;49.636;12.164;2022-12-07T08:37:10;20.08;;;7.63;;
68247;SDS011;55064;49.636;12.164;2022-12-07T08:39:40;20.50;;;8.13;;
68247;SDS011;55064;49.636;12.164;2022-12-07T08:42:06;18.33;;;6.80;;
68247;SDS011;55064;49.636;12.164;2022-12-07T08:44:31;20.75;;;7.38;;
68247;SDS011;55064;49.636;12.164;2022-12-07T08:46:58;17.37;;;6.90;;
68247;SDS011;55064;49.636;12.164;2022-12-07T08:49:36;18.77;;;6.88;;
68247;SDS011;55064;49.636;12.164;2022-12-07T08:52:05;16.52;;;6.45;;
68247;SDS011;55064;49.636;12.164;2022-12-07T08:54:33;16.45;;;6.20;;
68247;SDS011;55064;49.636;12.164;2022-12-07T08:56:59;13.97;;;5.50;;
68247;SDS011;55064;49.636;12.164;2022-12-07T08:59:26;17.95;;;6.30;;
68247;SDS011;55064;49.636;12.164;2022-12-07T09:01:53;15.82;;;6.07;;
68247;SDS011;55064;49.636;12.164;2022-12-07T09:04:19;15.77;;;6.20;;
68247;SDS011;55064;49.636;12.164;2022-12-07T09:06:45;16.38;;;5.72;;
68247;SDS011;55064;49.636;12.164;2022-12-07T09:09:12;15.70;;;5.90;;
68247;SDS011;55064;49.636;12.164;2022-12-07T09:11:45;18.75;;;6.53;;
68247;SDS011;55064;49.636;12.164;2022-12-07T09:14:11;15.50;;;5.53;;
68247;SDS011;55064;49.636;12.164;2022-12-07T09:16:37;17.85;;;6.95;;
68247;SDS011;55064;49.636;12.164;2022-12-07T09:19:05;17.55;;;6.25;;
68247;SDS011;55064;49.636;12.164;2022-12-07T09:21:34;14.77;;;5.97;;
68247;SDS011;55064;49.636;12.164;2022-12-07T09:24:00;18.10;;;7.03;;
68247;SDS011;55064;49.636;12.164;2022-12-07T09:26:32;17.97;;;6.93;;
68247;SDS011;55064;49.636;12.164;2022-12-07T09:29:00;19.25;;;6.38;;
68247;SDS011;55064;49.636;12.164;2022-12-07T09:31:32;16.50;;;6.88;;
68247;SDS011;55064;49.636;12.164;2022-12-07T09:33:58;15.60;;;5.68;;
68247;SDS011;55064;49.636;12.164;2022-12-07T09:36:27;17.65;;;6.28;;
68247;SDS011;55064;49.636;12.164;2022-12-07T09:38:57;15.97;;;6.17;;
68247;SDS011;55064;49.636;12.164;2022-12-07T09:41:23;15.95;;;5.95;;
68247;SDS011;55064;49.636;12.164;2022-12-07T09:43:54;21.97;;;7.40;;
68247;SDS011;55064;49.636;12.164;2022-12-07T09:46:36;21.15;;;7.80;;
68247;SDS011;55064;49.636;12.164;2022-12-07T09:49:11;19.70;;;7.60;;
68247;SDS011;55064;49.636;12.164;2022-12-07T09:51:39;18.13;;;6.60;;
68247;SDS011;55064;49.636;12.164;2022-12-07T09:54:14;21.40;;;7.28;;
68247;SDS011;55064;49.636;12.164;2022-12-07T09:56:42;18.43;;;6.87;;
68247;SDS011;55064;49.636;12.164;2022-12-07T09:59:26;20.60;;;7.53;;
68247;SDS011;55064;49.636;12.164;2022-12-07T10:04:55;18.10;;;6.57;;
68247;SDS011;55064;49.636;12.164;2022-12-07T10:07:25;21.30;;;7.80;;
68247;SDS011;55064;49.636;12.164;2022-12-07T10:09:50;18.67;;;7.20;;
68247;SDS011;55064;49.636;12.164;2022-12-07T10:12:15;22.17;;;7.77;;
68247;SDS011;55064;49.636;12.164;2022-12-07T10:14:59;20.17;;;7.43;;
68247;SDS011;55064;49.636;12.164;2022-12-07T10:17:37;18.87;;;7.30;;
68247;SDS011;55064;49.636;12.164;2022-12-07T10:22:41;20.85;;;8.00;;
68247;SDS011;55064;49.636;12.164;2022-12-07T10:25:20;24.23;;;8.50;;
68247;SDS011;55064;49.636;12.164;2022-12-07T10:30:50;20.87;;;7.83;;
68247;SDS011;55064;49.636;12.164;2022-12-07T10:35:57;21.65;;;7.88;;
68247;SDS011;55064;49.636;12.164;2022-12-07T10:38:22;19.83;;;7.30;;
68247;SDS011;55064;49.636;12.164;2022-12-07T10:41:02;20.10;;;8.70;;
68247;SDS011;55064;49.636;12.164;2022-12-07T10:43:34;24.05;;;8.73;;
68247;SDS011;55064;49.636;12.164;2022-12-07T10:57:07;20.08;;;7.78;;
68247;SDS011;55064;49.636;12.164;2022-12-07T11:13:29;20.17;;;7.80;;
68247;SDS011;55064;49.636;12.164;2022-12-07T11:21:10;19.02;;;7.78;;
68247;SDS011;55064;49.636;12.164;2022-12-07T11:24:25;19.38;;;8.10;;
68247;SDS011;55064;49.636;12.164;2022-12-07T11:27:00;19.57;;;7.73;;
68247;SDS011;55064;49.636;12.164;2022-12-07T11:30:08;20.08;;;7.60;;
68247;SDS011;55064;49.636;12.164;2022-12-07T11:37:47;18.63;;;7.47;;
68247;SDS011;55064;49.636;12.164;2022-12-07T11:40:24;20.27;;;8.07;;
68247;SDS011;55064;49.636;12.164;2022-12-07T11:43:35;21.27;;;7.82;;
68247;SDS011;55064;49.636;12.164;2022-12-07T11:45:46;18.98;;;6.93;;
68247;SDS011;55064;49.636;12.164;2022-12-07T11:48:38;19.25;;;7.40;;
68247;SDS011;55064;49.636;12.164;2022-12-07T11:51:03;20.13;;;7.47;;
68247;SDS011;55064;49.636;12.164;2022-12-07T11:56:21;16.63;;;6.57;;
68247;SDS011;55064;49.636;12.164;2022-12-07T11:58:56;16.77;;;7.07;;
68247;SDS011;55064;49.636;12.164;2022-12-07T12:06:38;16.03;;;6.07;;
68247;SDS011;55064;49.636;12.164;2022-12-07T12:17:30;20.08;;;6.90;;
68247;SDS011;55064;49.636;12.164;2022-12-07T12:25:41;14.25;;;6.50;;
68247;SDS011;55064;49.636;12.164;2022-12-07T12:31:05;16.45;;;6.22;;
68247;SDS011;55064;49.636;12.164;2022-12-07T12:33:31;16.00;;;6.73;;
68247;SDS011;55064;49.636;12.164;2022-12-07T12:46:49;16.50;;;6.13;;
68247;SDS011;55064;49.636;12.164;2022-12-07T12:49:53;18.45;;;6.97;;
68247;SDS011;55064;49.636;12.164;2022-12-07T12:53:01;19.35;;;6.80;;
68247;SDS011;55064;49.636;12.164;2022-12-07T13:00:44;19.07;;;7.47;;
68247;SDS011;55064;49.636;12.164;2022-12-07T13:03:26;18.90;;;7.38;;
68247;SDS011;55064;49.636;12.164;2022-12-07T13:08:56;19.25;;;7.00;;
68247;SDS011;55064;49.636;12.164;2022-12-07T13:11:29;18.67;;;6.88;;
68247;SDS011;55064;49.636;12.164;2022-12-07T13:17:02;17.58;;;6.53;;
68247;SDS011;55064;49.636;12.164;2022-12-07T13:24:55;15.25;;;6.75;;
68247;SDS011;55064;49.636;12.164;2022-12-07T13:27:22;18.30;;;7.13;;
68247;SDS011;55064;49.636;12.164;2022-12-07T13:29:52;17.80;;;6.90;;
68247;SDS011;55064;49.636;12.164;2022-12-07T13:32:24;18.08;;;6.82;;
68247;SDS011;55064;49.636;12.164;2022-12-07T13:34:51;17.13;;;6.63;;
68247;SDS011;55064;49.636;12.164;2022-12-07T13:37:26;21.60;;;7.93;;
68247;SDS011;55064;49.636;12.164;2022-12-07T13:45:00;21.90;;;7.40;;
68247;SDS011;55064;49.636;12.164;2022-12-07T13:47:47;21.10;;;7.15;;
68247;SDS011;55064;49.636;12.164;2022-12-07T13:50:35;18.17;;;7.28;;
68247;SDS011;55064;49.636;12.164;2022-12-07T13:53:07;15.70;;;6.00;;
68247;SDS011;55064;49.636;12.164;2022-12-07T13:55:38;17.45;;;6.85;;
68247;SDS011;55064;49.636;12.164;2022-12-07T13:58:11;20.77;;;6.97;;
68247;SDS011;55064;49.636;12.164;2022-12-07T14:00:39;19.02;;;7.25;;
68247;SDS011;55064;49.636;12.164;2022-12-07T14:05:42;19.63;;;7.70;;
68247;SDS011;55064;49.636;12.164;2022-12-07T14:10:53;22.50;;;7.55;;
68247;SDS011;55064;49.636;12.164;2022-12-07T14:16:05;20.35;;;7.57;;
68247;SDS011;55064;49.636;12.164;2022-12-07T14:18:43;21.92;;;8.30;;
68247;SDS011;55064;49.636;12.164;2022-12-07T14:21:22;19.10;;;8.35;;
68247;SDS011;55064;49.636;12.164;2022-12-07T14:26:47;19.80;;;8.00;;
68247;SDS011;55064;49.636;12.164;2022-12-07T14:31:53;19.33;;;8.07;;
68247;SDS011;55064;49.636;12.164;2022-12-07T14:34:20;18.95;;;7.55;;
68247;SDS011;55064;49.636;12.164;2022-12-07T14:36:52;19.90;;;7.25;;
68247;SDS011;55064;49.636;12.164;2022-12-07T14:39:22;18.43;;;7.03;;
68247;SDS011;55064;49.636;12.164;2022-12-07T14:41:47;18.85;;;8.00;;
68247;SDS011;55064;49.636;12.164;2022-12-07T14:44:15;19.48;;;7.68;;
68247;SDS011;55064;49.636;12.164;2022-12-07T14:46:44;20.23;;;8.02;;
68247;SDS011;55064;49.636;12.164;2022-12-07T14:49:12;17.30;;;6.63;;
68247;SDS011;55064;49.636;12.164;2022-12-07T14:51:39;22.30;;;8.07;;
68247;SDS011;55064;49.636;12.164;2022-12-07T14:54:11;16.67;;;7.20;;
68247;SDS011;55064;49.636;12.164;2022-12-07T14:56:50;20.38;;;6.70;;
68247;SDS011;55064;49.636;12.164;2022-12-07T14:59:16;21.57;;;7.37;;
68247;SDS011;55064;49.636;12.164;2022-12-07T15:01:45;17.05;;;5.82;;
68247;SDS011;55064;49.636;12.164;2022-12-07T15:04:10;18.30;;;7.18;;
68247;SDS011;55064;49.636;12.164;2022-12-07T15:06:38;18.33;;;7.10;;
68247;SDS011;55064;49.636;12.164;2022-12-07T15:09:08;16.40;;;6.63;;
68247;SDS011;55064;49.636;12.164;2022-12-07T15:11:36;17.30;;;6.47;;
68247;SDS011;55064;49.636;12.164;2022-12-07T15:14:04;15.18;;;6.25;;
68247;SDS011;55064;49.636;12.164;2022-12-07T15:16:39;16.67;;;6.32;;
68247;SDS011;55064;49.636;12.164;2022-12-07T15:19:17;18.77;;;8.27;;
68247;SDS011;55064;49.636;12.164;2022-12-07T15:21:44;15.55;;;6.70;;
68247;SDS011;55064;49.636;12.164;2022-12-07T15:24:14;15.90;;;7.10;;
68247;SDS011;55064;49.636;12.164;2022-12-07T15:26:40;14.77;;;5.80;;
68247;SDS011;55064;49.636;12.164;2022-12-07T15:29:08;17.15;;;6.25;;
68247;SDS011;55064;49.636;12.164;2022-12-07T15:31:39;14.53;;;6.20;;
68247;SDS011;55064;49.636;12.164;2022-12-07T15:34:05;14.55;;;5.47;;
68247;SDS011;55064;49.636;12.164;2022-12-07T15:36:35;13.98;;;6.03;;
68247;SDS011;55064;49.636;12.164;2022-12-07T15:39:02;14.88;;;6.53;;
68247;SDS011;55064;49.636;12.164;2022-12-07T15:41:30;15.35;;;5.88;;
68247;SDS011;55064;49.636;12.164;2022-12-07T15:44:00;15.07;;;6.00;;
68247;SDS011;55064;49.636;12.164;2022-12-07T15:46:44;15.00;;;5.85;;
68247;SDS011;55064;49.636;12.164;2022-12-07T15:49:15;13.27;;;5.60;;
68247;SDS011;55064;49.636;12.164;2022-12-07T15:51:42;12.50;;;4.63;;
68247;SDS011;55064;49.636;12.164;2022-12-07T15:54:32;14.80;;;4.85;;
68247;SDS011;55064;49.636;12.164;2022-12-07T15:56:57;13.85;;;5.30;;
68247;SDS011;55064;49.636;12.164;2022-12-07T15:59:26;14.13;;;5.17;;
68247;SDS011;55064;49.636;12.164;2022-12-07T16:01:52;12.32;;;4.40;;
68247;SDS011;55064;49.636;12.164;2022-12-07T16:04:18;14.47;;;5.83;;
68247;SDS011;55064;49.636;12.164;2022-12-07T16:06:46;13.40;;;4.53;;
68247;SDS011;55064;49.636;12.164;2022-12-07T16:09:12;11.65;;;4.28;;
68247;SDS011;55064;49.636;12.164;2022-12-07T16:11:40;12.70;;;4.67;;
68247;SDS011;55064;49.636;12.164;2022-12-07T16:14:05;14.90;;;4.88;;
68247;SDS011;55064;49.636;12.164;2022-12-07T16:16:30;15.70;;;5.50;;
68247;SDS011;55064;49.636;12.164;2022-12-07T16:19:01;14.18;;;5.60;;
68247;SDS011;55064;49.636;12.164;2022-12-07T16:21:29;15.13;;;5.93;;
68247;SDS011;55064;49.636;12.164;2022-12-07T16:23:57;15.53;;;6.17;;
68247;SDS011;55064;49.636;12.164;2022-12-07T16:26:24;15.77;;;5.63;;
68247;SDS011;55064;49.636;12.164;2022-12-07T16:28:52;15.95;;;6.13;;
68247;SDS011;55064;49.636;12.164;2022-12-07T16:31:19;13.48;;;5.53;;
68247;SDS011;55064;49.636;12.164;2022-12-07T16:33:46;16.67;;;6.22;;
68247;SDS011;55064;49.636;12.164;2022-12-07T16:36:12;14.33;;;5.90;;
68247;SDS011;55064;49.636;12.164;2022-12-07T16:38:41;15.35;;;5.55;;
68247;SDS011;55064;49.636;12.164;2022-12-07T16:41:08;15.50;;;5.40;;
68247;SDS011;55064;49.636;12.164;2022-12-07T16:43:36;13.98;;;6.10;;
68247;SDS011;55064;49.636;12.164;2022-12-07T16:46:04;13.10;;;5.20;;
68247;SDS011;55064;49.636;12.164;2022-12-07T16:48:37;13.10;;;4.80;;
68247;SDS011;55064;49.636;12.164;2022-12-07T16:51:04;13.15;;;5.32;;
68247;SDS011;55064;49.636;12.164;2022-12-07T16:53:36;12.48;;;5.13;;
68247;SDS011;55064;49.636;12.164;2022-12-07T16:56:03;13.40;;;5.60;;
68247;SDS011;55064;49.636;12.164;2022-12-07T16:58:30;14.60;;;5.47;;
68247;SDS011;55064;49.636;12.164;2022-12-07T17:00:56;15.47;;;6.27;;
68247;SDS011;55064;49.636;12.164;2022-12-07T17:03:23;14.30;;;5.95;;
68247;SDS011;55064;49.636;12.164;2022-12-07T17:05:58;15.13;;;6.15;;
68247;SDS011;55064;49.636;12.164;2022-12-07T17:08:23;16.50;;;6.47;;
68247;SDS011;55064;49.636;12.164;2022-12-07T17:10:49;17.50;;;6.77;;
68247;SDS011;55064;49.636;12.164;2022-12-07T17:13:15;17.37;;;6.43;;
68247;SDS011;55064;49.636;12.164;2022-12-07T17:16:04;16.98;;;7.03;;